Time;durP1;ratioP1;P1;durP2;ratioP2;P2;SDS_P1;SDS_P2;PMS_P1;PMS_P2;Temp;Humidity;BMP_temperature;BMP_pressure;BME280_temperature;BME280_humidity;BME280_pressure;Samples;Min_cycle;Max_cycle;Signal;HPM_P1;HPM_P2
2024/04/14 00:01:06;;;;;;;4.77;1.97;;;16.30;1.00;;;;;;5491534;26;20259;-79
2024/04/14 00:03:32;;;;;;;7.87;2.07;;;16.00;1.00;;;;;;5489122;26;20685;-80
2024/04/14 00:05:58;;;;;;;3.03;1.70;;;15.90;1.00;;;;;;5490989;26;20223;-81
2024/04/14 00:08:24;;;;;;;4.53;1.80;;;15.80;1.00;;;;;;5487666;26;20216;-80
2024/04/14 00:10:50;;;;;;;5.33;1.93;;;15.70;1.00;;;;;;5491199;26;20213;-83
2024/04/14 00:13:15;;;;;;;5.13;1.97;;;15.80;1.00;;;;;;5491044;26;20230;-78
2024/04/14 00:15:41;;;;;;;4.97;2.00;;;15.80;1.00;;;;;;5490811;26;20216;-85
2024/04/14 00:18:06;;;;;;;3.40;1.87;;;15.80;1.00;;;;;;5491499;26;20720;-86
2024/04/14 00:20:32;;;;;;;5.07;1.90;;;15.70;1.00;;;;;;5488966;26;20664;-88
2024/04/14 00:22:59;;;;;;;5.20;2.20;;;15.60;1.00;;;;;;5491019;26;20693;-80
2024/04/14 00:25:25;;;;;;;4.23;1.80;;;15.60;1.00;;;;;;5491649;26;20216;-80
2024/04/14 00:27:51;;;;;;;3.83;2.30;;;15.60;1.00;;;;;;5491501;26;20219;-80
2024/04/14 00:30:16;;;;;;;4.60;1.83;;;15.60;1.00;;;;;;5489639;26;20224;-79
2024/04/14 00:32:42;;;;;;;5.23;2.17;;;15.50;1.00;;;;;;5490594;26;20333;-80
2024/04/14 00:35:08;;;;;;;4.67;2.30;;;15.40;1.00;;;;;;5490055;26;20217;-80
2024/04/14 00:37:33;;;;;;;4.23;2.10;;;15.40;1.00;;;;;;5489782;26;20803;-79
2024/04/14 00:39:59;;;;;;;6.23;2.47;;;15.40;1.00;;;;;;5490326;26;20270;-80
2024/04/14 00:42:25;;;;;;;5.50;2.50;;;15.40;1.00;;;;;;5488963;26;20739;-78
2024/04/14 00:44:51;;;;;;;5.50;2.73;;;15.20;1.00;;;;;;5490638;26;20257;-80
2024/04/14 00:47:17;;;;;;;6.33;2.50;;;15.10;1.00;;;;;;5488517;26;20330;-80
2024/04/14 00:49:43;;;;;;;6.03;2.63;;;15.10;1.00;;;;;;5489675;26;20263;-80
2024/04/14 00:52:10;;;;;;;6.73;3.20;;;15.20;1.00;;;;;;5490421;26;20220;-80
2024/04/14 00:54:37;;;;;;;6.80;2.83;;;15.10;1.00;;;;;;5490650;26;20212;-80
2024/04/14 00:57:06;;;;;;;7.43;3.30;;;15.10;1.00;;;;;;5490591;26;20318;-80
2024/04/14 00:59:32;;;;;;;7.80;3.10;;;15.10;1.00;;;;;;5490373;26;20216;-80
2024/04/14 01:01:58;;;;;;;8.87;3.27;;;14.90;1.00;;;;;;5490034;26;20215;-81
2024/04/14 01:04:23;;;;;;;7.77;3.20;;;14.90;1.00;;;;;;5489901;26;20215;-80
2024/04/14 01:06:49;;;;;;;8.93;3.30;;;14.80;1.00;;;;;;5489236;26;20217;-79
2024/04/14 01:09:16;;;;;;;8.10;3.13;;;14.70;1.00;;;;;;5489792;26;20543;-81
2024/04/14 01:11:41;;;;;;;9.47;3.57;;;14.60;1.00;;;;;;5488894;26;20219;-80
2024/04/14 01:14:07;;;;;;;6.60;3.43;;;14.50;1.00;;;;;;5489863;26;20819;-81
2024/04/14 01:16:36;;;;;;;5.97;3.80;;;14.40;1.00;;;;;;5488460;26;20689;-80
2024/04/14 01:19:03;;;;;;;10.87;3.80;;;14.50;1.00;;;;;;5488881;26;20323;-80
2024/04/14 01:21:29;;;;;;;9.30;3.50;;;14.50;1.00;;;;;;5489931;26;20287;-80
2024/04/14 01:23:55;;;;;;;6.87;3.77;;;14.50;1.00;;;;;;5488288;26;20684;-80
2024/04/14 01:26:20;;;;;;;8.03;3.77;;;14.40;2.40;;;;;;5487846;26;20259;-81
2024/04/14 01:28:46;;;;;;;9.60;4.10;;;14.40;4.50;;;;;;5489971;26;20697;-80
2024/04/14 01:31:12;;;;;;;8.20;3.70;;;14.40;5.90;;;;;;5490420;26;20216;-80
2024/04/14 01:33:38;;;;;;;10.77;4.30;;;14.40;7.50;;;;;;5488099;26;20720;-79
2024/04/14 01:36:04;;;;;;;6.10;4.00;;;14.60;6.70;;;;;;5488315;26;20582;-80
2024/04/14 01:38:30;;;;;;;9.70;4.00;;;14.40;6.80;;;;;;5488092;26;20248;-80
2024/04/14 01:40:55;;;;;;;8.43;4.10;;;14.40;9.10;;;;;;5488755;26;20696;-81
2024/04/14 01:43:21;;;;;;;9.37;4.20;;;14.30;12.60;;;;;;5488673;26;20253;-79
2024/04/14 01:45:47;;;;;;;8.53;4.30;;;14.20;15.90;;;;;;5489000;26;20693;-80
2024/04/14 01:48:12;;;;;;;7.93;4.07;;;14.20;17.80;;;;;;5487650;26;20262;-80
2024/04/14 01:50:39;;;;;;;8.20;4.23;;;14.20;18.90;;;;;;5486763;26;20716;-80
2024/04/14 01:53:04;;;;;;;10.67;4.97;;;14.20;19.60;;;;;;5486878;26;20221;-80
2024/04/14 01:55:30;;;;;;;12.67;4.97;;;14.20;22.60;;;;;;5490105;26;20677;-79
2024/04/14 01:57:57;;;;;;;9.43;4.43;;;14.10;24.90;;;;;;5490143;26;20217;-80
2024/04/14 02:00:23;;;;;;;12.00;4.50;;;14.10;27.00;;;;;;5489789;26;20216;-79
2024/04/14 02:02:51;;;;;;;8.10;4.27;;;14.10;28.00;;;;;;5489693;26;20212;-80
2024/04/14 02:05:17;;;;;;;7.90;4.70;;;14.10;28.70;;;;;;5489481;26;20219;-79
2024/04/14 02:07:43;;;;;;;8.63;4.50;;;14.10;29.20;;;;;;5485713;26;20243;-80
2024/04/14 02:10:09;;;;;;;10.30;4.33;;;14.10;29.60;;;;;;5489324;26;20224;-81
2024/04/14 02:12:35;;;;;;;10.57;5.00;;;14.00;33.90;;;;;;5488679;26;20699;-81
2024/04/14 02:15:00;;;;;;;9.93;4.63;;;14.00;35.40;;;;;;5486876;26;20753;-80
2024/04/14 02:17:26;;;;;;;7.67;4.60;;;14.10;34.40;;;;;;5489254;26;20570;-80
2024/04/14 02:19:52;;;;;;;10.90;4.93;;;14.10;35.30;;;;;;5487711;26;20297;-80
2024/04/14 02:22:17;;;;;;;9.57;4.43;;;14.00;38.60;;;;;;5487162;26;20375;-80
2024/04/14 02:24:45;;;;;;;7.93;4.50;;;14.10;39.10;;;;;;5487627;26;20220;-80
2024/04/14 02:27:11;;;;;;;9.53;5.27;;;14.10;37.50;;;;;;5486971;26;20629;-80
2024/04/14 02:29:37;;;;;;;9.97;5.20;;;14.10;38.10;;;;;;5488912;26;20215;-80
2024/04/14 02:32:03;;;;;;;10.67;5.03;;;13.90;43.90;;;;;;5486710;26;20247;-81
2024/04/14 02:34:29;;;;;;;8.93;5.07;;;13.90;46.50;;;;;;5487232;26;20238;-81
2024/04/14 02:36:55;;;;;;;8.57;5.17;;;13.90;47.00;;;;;;5488922;26;20668;-80
2024/04/14 02:39:21;;;;;;;13.40;5.30;;;13.90;49.30;;;;;;5486999;26;20321;-80
2024/04/14 02:41:47;;;;;;;13.60;6.10;;;13.80;51.50;;;;;;5487590;26;20224;-80
2024/04/14 02:44:13;;;;;;;12.03;5.57;;;13.90;51.70;;;;;;5487350;26;20610;-80
2024/04/14 02:46:38;;;;;;;11.07;5.53;;;13.90;50.90;;;;;;5488651;26;20258;-81
2024/04/14 02:49:05;;;;;;;13.10;5.47;;;13.90;52.40;;;;;;5487198;26;20235;-81
2024/04/14 02:51:31;;;;;;;9.90;5.03;;;13.80;52.50;;;;;;5487813;26;20687;-80
2024/04/14 02:53:56;;;;;;;9.87;5.17;;;13.70;55.00;;;;;;5488967;26;20326;-79
2024/04/14 02:56:22;;;;;;;10.00;5.23;;;13.70;57.00;;;;;;5489087;26;20218;-80
2024/04/14 02:58:48;;;;;;;11.40;5.60;;;13.80;58.60;;;;;;5486625;26;20367;-80
2024/04/14 03:01:16;;;;;;;11.20;5.10;;;13.80;56.90;;;;;;5486504;26;20216;-80
2024/04/14 03:03:44;;;;;;;10.67;4.80;;;13.60;59.90;;;;;;5486657;26;20331;-80
2024/04/14 03:06:10;;;;;;;11.23;4.97;;;13.60;62.10;;;;;;5486355;26;20227;-80
2024/04/14 03:08:35;;;;;;;10.47;4.70;;;13.60;59.90;;;;;;5487976;26;20621;-79
2024/04/14 03:11:02;;;;;;;8.53;4.70;;;13.60;60.50;;;;;;5487143;26;20254;-81
2024/04/14 03:13:28;;;;;;;10.07;5.10;;;13.50;63.40;;;;;;5486032;26;20275;-80
2024/04/14 03:15:54;;;;;;;11.93;5.00;;;13.40;65.70;;;;;;5487378;26;20215;-81
2024/04/14 03:18:20;;;;;;;10.97;5.47;;;13.30;73.10;;;;;;5485085;26;20741;-80
2024/04/14 03:20:56;;;;;;;11.70;5.83;;;13.40;70.20;;;;;;5488703;26;20215;-81
2024/04/14 03:23:22;;;;;;;10.57;5.20;;;13.40;74.00;;;;;;5488167;26;20254;-79
2024/04/14 03:25:47;;;;;;;9.43;5.70;;;13.30;75.30;;;;;;5488018;26;20618;-80
2024/04/14 03:28:13;;;;;;;14.97;5.60;;;13.30;81.10;;;;;;5487797;26;20727;-79
2024/04/14 03:30:39;;;;;;;10.17;5.67;;;13.40;80.60;;;;;;5488293;26;20216;-80
2024/04/14 03:33:04;;;;;;;11.03;6.53;;;13.40;81.00;;;;;;5488178;26;20786;-81
2024/04/14 03:35:30;;;;;;;9.50;5.37;;;13.60;76.70;;;;;;5486847;26;20315;-81
2024/04/14 03:37:56;;;;;;;12.50;5.97;;;13.60;75.40;;;;;;5488240;26;20701;-81
2024/04/14 03:40:21;;;;;;;10.70;6.40;;;13.60;73.00;;;;;;5487226;26;20224;-80
2024/04/14 03:42:47;;;;;;;11.97;6.83;;;13.60;78.70;;;;;;5487300;26;20764;-81
2024/04/14 03:45:14;;;;;;;12.13;6.60;;;13.40;82.90;;;;;;5487868;26;20263;-81
2024/04/14 03:47:40;;;;;;;11.00;6.33;;;13.50;80.60;;;;;;5485795;26;20275;-79
2024/04/14 03:50:06;;;;;;;13.43;5.93;;;13.40;84.90;;;;;;5486394;26;20359;-81
2024/04/14 03:52:32;;;;;;;13.27;6.27;;;13.30;88.90;;;;;;5487364;26;20664;-80
2024/04/14 03:54:57;;;;;;;10.73;5.97;;;13.20;92.20;;;;;;5484516;26;20212;-80
2024/04/14 03:57:23;;;;;;;10.03;6.10;;;13.30;91.40;;;;;;5486792;26;20292;-80
2024/04/14 03:59:48;;;;;;;14.70;6.43;;;13.40;89.60;;;;;;5487709;26;20516;-80
2024/04/14 04:02:14;;;;;;;11.70;6.20;;;13.40;89.50;;;;;;5487763;26;20557;-80
2024/04/14 04:04:40;;;;;;;14.83;7.00;;;13.30;90.90;;;;;;5484802;26;20637;-80
2024/04/14 04:07:06;;;;;;;10.47;6.13;;;13.30;92.30;;;;;;5484951;26;20232;-80
2024/04/14 04:09:31;;;;;;;12.43;6.80;;;13.30;92.60;;;;;;5486426;26;20631;-80
2024/04/14 04:11:58;;;;;;;13.00;6.77;;;13.30;91.40;;;;;;5485849;26;20285;-80
2024/04/14 04:14:24;;;;;;;10.63;7.00;;;13.20;94.30;;;;;;5485580;26;20232;-79
2024/04/14 04:16:50;;;;;;;12.30;6.80;;;13.20;95.70;;;;;;5486950;26;20335;-80
2024/04/14 04:19:16;;;;;;;13.60;7.47;;;13.20;97.70;;;;;;5484793;26;20234;-80
2024/04/14 04:21:41;;;;;;;16.30;7.57;;;13.10;98.00;;;;;;5485645;26;20239;-80
2024/04/14 04:24:07;;;;;;;14.90;7.73;;;13.10;98.20;;;;;;5485504;26;20264;-79
2024/04/14 04:26:33;;;;;;;14.47;8.37;;;13.10;99.30;;;;;;5484683;26;20221;-80
2024/04/14 04:28:59;;;;;;;13.17;7.93;;;13.30;97.20;;;;;;5487070;26;20213;-80
2024/04/14 04:31:24;;;;;;;16.37;8.40;;;13.30;98.20;;;;;;5485617;26;20228;-81
2024/04/14 04:33:50;;;;;;;15.43;7.63;;;13.30;97.50;;;;;;5485223;26;20263;-80
2024/04/14 04:36:17;;;;;;;13.43;8.20;;;13.30;97.70;;;;;;5484833;26;20223;-79
2024/04/14 04:38:43;;;;;;;13.10;8.23;;;13.30;99.10;;;;;;5487464;26;20264;-80
2024/04/14 04:41:10;;;;;;;17.13;8.33;;;13.20;99.90;;;;;;5486643;26;20220;-79
2024/04/14 04:43:37;;;;;;;15.17;8.13;;;13.30;98.60;;;;;;5485060;26;20216;-80
2024/04/14 04:46:03;;;;;;;15.83;9.17;;;13.20;99.90;;;;;;5486984;26;20220;-80
2024/04/14 04:48:28;;;;;;;13.97;9.13;;;13.10;99.90;;;;;;5489345;26;20212;-80
2024/04/14 04:50:55;;;;;;;18.00;9.10;;;13.10;99.90;;;;;;5490168;26;20228;-80
2024/04/14 04:53:21;;;;;;;19.00;9.17;;;13.00;99.90;;;;;;5488837;26;20223;-80
2024/04/14 04:55:47;;;;;;;15.53;9.73;;;13.00;99.90;;;;;;5487630;26;20227;-82
2024/04/14 04:58:13;;;;;;;13.10;8.70;;;13.00;99.90;;;;;;5490538;26;20216;-81
2024/04/14 05:00:39;;;;;;;17.03;10.13;;;13.20;99.90;;;;;;5488284;26;20578;-80
2024/04/14 05:03:05;;;;;;;15.40;9.57;;;13.30;99.90;;;;;;5489072;26;20227;-80
2024/04/14 05:05:31;;;;;;;14.40;9.80;;;13.40;99.90;;;;;;5490552;26;20841;-79
2024/04/14 05:07:57;;;;;;;16.43;9.73;;;13.30;99.90;;;;;;5486935;26;20226;-81
2024/04/14 05:10:22;;;;;;;17.20;10.27;;;13.30;99.90;;;;;;5488069;26;20223;-90
2024/04/14 05:12:48;;;;;;;16.67;10.03;;;13.40;99.90;;;;;;5490240;26;20230;-80
2024/04/14 05:15:14;;;;;;;19.10;10.20;;;13.10;99.90;;;;;;5488340;26;20230;-81
2024/04/14 05:17:40;;;;;;;17.43;10.40;;;13.10;99.90;;;;;;5486173;26;20725;-80
2024/04/14 05:20:06;;;;;;;18.47;9.63;;;13.10;99.90;;;;;;5489908;26;20214;-81
2024/04/14 05:22:32;;;;;;;19.70;11.37;;;13.00;99.90;;;;;;5490467;26;20296;-81
2024/04/14 05:24:57;;;;;;;16.97;10.73;;;13.00;99.90;;;;;;5487992;26;20244;-81
2024/04/14 05:27:23;;;;;;;18.17;10.40;;;13.00;99.90;;;;;;5488988;26;20252;-81
2024/04/14 05:29:49;;;;;;;15.43;11.00;;;12.90;99.90;;;;;;5488484;26;20685;-79
2024/04/14 05:32:16;;;;;;;15.93;10.37;;;12.80;99.90;;;;;;5488697;26;20217;-81
2024/04/14 05:34:42;;;;;;;16.00;10.23;;;12.70;99.90;;;;;;5490585;26;20227;-80
2024/04/14 05:37:08;;;;;;;18.43;11.17;;;12.80;99.90;;;;;;5487992;26;20277;-80
2024/04/14 05:39:34;;;;;;;17.87;10.13;;;12.80;99.90;;;;;;5487618;26;20652;-80
2024/04/14 05:42:00;;;;;;;16.80;11.07;;;12.80;99.90;;;;;;5487244;26;20793;-81
2024/04/14 05:44:25;;;;;;;16.23;11.57;;;12.80;99.90;;;;;;5490116;26;20242;-82
2024/04/14 05:46:51;;;;;;;19.57;11.30;;;12.90;99.90;;;;;;5490236;26;20264;-81
2024/04/14 05:49:20;;;;;;;17.50;10.70;;;13.00;99.90;;;;;;5487653;26;20553;-82
2024/04/14 05:51:46;;;;;;;17.00;10.03;;;13.00;99.90;;;;;;5489158;26;20216;-80
2024/04/14 05:54:12;;;;;;;18.60;11.47;;;12.90;99.90;;;;;;5487215;26;20225;-80
2024/04/14 05:56:38;;;;;;;17.87;11.67;;;12.90;99.90;;;;;;5489061;26;20263;-82
2024/04/14 05:59:03;;;;;;;17.77;11.33;;;12.80;99.90;;;;;;5490176;26;20690;-81
2024/04/14 06:01:29;;;;;;;16.77;11.40;;;13.00;99.90;;;;;;5489133;26;20288;-79
2024/04/14 06:03:55;;;;;;;20.33;11.33;;;13.10;99.90;;;;;;5491044;26;20225;-80
2024/04/14 06:06:21;;;;;;;19.43;11.30;;;13.10;99.90;;;;;;5491053;26;20245;-80
2024/04/14 06:08:46;;;;;;;20.40;11.67;;;13.30;99.90;;;;;;5491476;26;20215;-79
2024/04/14 06:11:12;;;;;;;21.00;11.53;;;13.20;99.90;;;;;;5488748;26;20573;-80
2024/04/14 06:13:38;;;;;;;20.17;11.57;;;13.20;99.90;;;;;;5489414;26;20228;-80
2024/04/14 06:16:04;;;;;;;19.30;11.70;;;13.00;99.90;;;;;;5487191;26;20226;-81
2024/04/14 06:18:29;;;;;;;17.70;11.20;;;13.00;99.90;;;;;;5489292;26;20670;-82
2024/04/14 06:20:55;;;;;;;18.60;12.30;;;13.10;99.90;;;;;;5487247;26;20283;-80
2024/04/14 06:23:21;;;;;;;17.63;12.23;;;13.10;99.90;;;;;;5490191;26;20348;-81
2024/04/14 06:25:46;;;;;;;19.23;12.27;;;13.10;99.90;;;;;;5489356;26;20227;-82
2024/04/14 06:28:12;;;;;;;18.97;10.70;;;13.10;99.90;;;;;;5488025;26;20724;-80
2024/04/14 06:30:38;;;;;;;17.67;11.73;;;13.10;99.90;;;;;;5489900;26;20224;-81
2024/04/14 06:33:04;;;;;;;19.43;11.50;;;13.20;99.90;;;;;;5490073;26;20277;-80
2024/04/14 06:35:30;;;;;;;20.23;12.17;;;13.10;99.90;;;;;;5489268;26;20216;-81
2024/04/14 06:37:56;;;;;;;21.03;12.23;;;13.20;99.90;;;;;;5486303;26;20260;-80
2024/04/14 06:40:22;;;;;;;20.97;12.37;;;13.10;99.90;;;;;;5488051;26;20326;-84
2024/04/14 06:42:48;;;;;;;21.17;11.53;;;13.10;99.90;;;;;;5487078;26;20662;-79
2024/04/14 06:45:13;;;;;;;19.20;11.83;;;13.10;99.90;;;;;;5488661;26;20259;-78
2024/04/14 06:47:39;;;;;;;16.90;11.23;;;13.20;99.90;;;;;;5488659;26;20759;-80
2024/04/14 06:50:07;;;;;;;18.43;10.87;;;13.50;99.90;;;;;;5486583;26;20299;-80
2024/04/14 06:52:33;;;;;;;20.87;12.20;;;13.50;99.90;;;;;;5486873;26;20674;-81
2024/04/14 06:54:58;;;;;;;18.07;12.10;;;13.50;99.90;;;;;;5485674;26;20214;-80
2024/04/14 06:57:24;;;;;;;20.27;12.17;;;13.60;99.90;;;;;;5488881;26;20215;-81
2024/04/14 06:59:49;;;;;;;18.80;11.40;;;13.60;99.90;;;;;;5488974;26;20742;-82
2024/04/14 07:02:15;;;;;;;19.93;10.63;;;13.60;99.90;;;;;;5488501;26;20260;-79
2024/04/14 07:04:41;;;;;;;17.27;11.80;;;13.60;99.90;;;;;;5485801;26;20707;-80
2024/04/14 07:07:06;;;;;;;18.87;12.73;;;13.70;99.90;;;;;;5485973;26;20251;-81
2024/04/14 07:09:32;;;;;;;22.27;12.10;;;13.80;99.90;;;;;;5485440;26;20681;-80
2024/04/14 07:11:58;;;;;;;19.67;11.10;;;13.70;99.90;;;;;;5488167;26;20216;-81
2024/04/14 07:14:23;;;;;;;18.30;12.00;;;13.80;99.90;;;;;;5488660;26;20224;-81
2024/04/14 07:16:49;;;;;;;19.80;12.10;;;13.80;99.90;;;;;;5485544;26;20286;-81
2024/04/14 07:19:15;;;;;;;18.67;11.47;;;13.90;99.90;;;;;;5488608;26;20716;-80
2024/04/14 07:21:40;;;;;;;20.17;12.17;;;14.00;99.90;;;;;;5487252;26;20224;-80
2024/04/14 07:24:06;;;;;;;16.07;11.63;;;14.00;99.90;;;;;;5486659;26;20224;-81
2024/04/14 07:26:35;;;;;;;18.50;12.33;;;14.10;99.90;;;;;;5489273;26;20309;-82
2024/04/14 07:29:00;;;;;;;17.47;10.53;;;13.90;98.80;;;;;;5485725;26;20613;-81
2024/04/14 07:31:26;;;;;;;16.90;10.33;;;13.90;94.30;;;;;;5486232;26;20220;-82
2024/04/14 07:34:03;;;;;;;16.40;10.70;;;13.80;93.10;;;;;;5487699;26;20387;-81
2024/04/14 07:36:29;;;;;;;18.47;10.93;;;13.90;95.50;;;;;;5485420;26;20680;-80
2024/04/14 07:38:55;;;;;;;15.33;10.50;;;13.90;96.30;;;;;;5485962;26;20242;-80
2024/04/14 07:41:21;;;;;;;20.13;10.23;;;14.10;95.50;;;;;;5489119;26;20229;-82
2024/04/14 07:43:47;;;;;;;14.87;9.87;;;14.00;96.10;;;;;;5486378;26;20769;-81
2024/04/14 07:46:13;;;;;;;15.23;10.10;;;14.20;96.00;;;;;;5485075;26;20696;-81
2024/04/14 07:48:39;;;;;;;15.57;9.40;;;14.30;91.10;;;;;;5484820;26;20259;-81
2024/04/14 07:51:04;;;;;;;15.67;8.63;;;14.40;89.10;;;;;;5486672;26;20516;-80
2024/04/14 07:53:30;;;;;;;17.20;8.70;;;14.60;80.20;;;;;;5485808;26;20681;-80
2024/04/14 07:55:56;;;;;;;17.70;8.60;;;14.60;69.40;;;;;;5489151;26;20398;-80
2024/04/14 07:58:22;;;;;;;14.47;7.70;;;14.70;52.30;;;;;;5487054;26;20581;-80
2024/04/14 08:00:48;;;;;;;15.20;8.53;;;14.60;44.60;;;;;;5486370;26;20292;-81
2024/04/14 08:03:13;;;;;;;15.50;8.87;;;14.50;43.80;;;;;;5486357;26;20239;-80
2024/04/14 08:05:40;;;;;;;14.47;8.07;;;14.60;44.00;;;;;;5487326;26;20266;-79
2024/04/14 08:08:08;;;;;;;14.30;8.60;;;14.50;43.90;;;;;;5486703;26;20559;-80
2024/04/14 08:10:34;;;;;;;18.93;8.20;;;14.50;43.80;;;;;;5487002;26;20275;-80
2024/04/14 08:12:59;;;;;;;16.33;7.93;;;14.60;45.10;;;;;;5485923;26;20224;-82
2024/04/14 08:15:25;;;;;;;16.30;7.97;;;14.80;42.00;;;;;;5485217;26;20232;-79
2024/04/14 08:17:51;;;;;;;15.90;8.33;;;14.80;44.20;;;;;;5485821;26;20278;-79
2024/04/14 08:20:17;;;;;;;18.17;8.10;;;15.00;41.00;;;;;;5486698;26;20266;-81
2024/04/14 08:22:43;;;;;;;12.20;7.27;;;15.10;30.90;;;;;;5489321;26;20589;-81
2024/04/14 08:25:09;;;;;;;16.17;8.20;;;15.20;26.70;;;;;;5488409;26;20443;-81
2024/04/14 08:27:34;;;;;;;14.43;7.63;;;15.30;23.40;;;;;;5489535;26;20208;-80
2024/04/14 08:30:00;;;;;;;14.90;8.17;;;15.50;22.70;;;;;;5490125;26;20212;-82
2024/04/14 08:32:26;;;;;;;13.73;7.83;;;15.60;21.60;;;;;;5489510;26;20714;-88
2024/04/14 08:34:51;;;;;;;10.10;6.27;;;15.60;15.60;;;;;;5488725;26;20309;-81
2024/04/14 08:37:17;;;;;;;12.80;6.63;;;15.50;12.00;;;;;;5467584;26;20609;-84
2024/04/14 08:39:44;;;;;;;15.73;6.53;;;15.40;5.80;;;;;;5475761;26;20662;-83
2024/04/14 08:42:10;;;;;;;13.37;6.37;;;15.20;8.50;;;;;;5466173;26;20221;-85
2024/04/14 08:44:37;;;;;;;15.83;7.10;;;15.20;10.60;;;;;;5478842;26;20692;-83
2024/04/14 08:47:04;;;;;;;13.50;6.27;;;15.30;13.70;;;;;;5487324;26;20236;-82
2024/04/14 08:49:30;;;;;;;11.40;5.90;;;15.40;10.30;;;;;;5487648;26;20597;-83
2024/04/14 08:51:58;;;;;;;10.00;5.77;;;15.30;4.40;;;;;;5492092;25;20385;-86
2024/04/14 08:54:24;;;;;;;11.53;5.60;;;15.20;7.80;;;;;;5474105;26;20224;-85
2024/04/14 08:56:55;;;;;;;14.90;5.80;;;15.20;5.40;;;;;;5465072;26;20568;-84
2024/04/14 08:59:22;;;;;;;12.87;5.37;;;15.00;1.00;;;;;;5458973;26;20259;-85
2024/04/14 09:01:48;;;;;;;13.17;4.73;;;14.90;1.00;;;;;;5458321;26;20263;-84
2024/04/14 09:04:15;;;;;;;10.07;4.53;;;14.70;1.00;;;;;;5463056;26;20808;-84
2024/04/14 09:06:44;;;;;;;14.10;5.00;;;14.70;1.00;;;;;;5463331;26;20238;-83
2024/04/14 09:09:11;;;;;;;8.97;4.17;;;14.70;1.00;;;;;;5470028;26;20320;-85
2024/04/14 09:11:37;;;;;;;13.03;3.43;;;14.90;1.00;;;;;;5460426;26;20718;-84
2024/04/14 09:14:03;;;;;;;9.53;3.53;;;14.90;1.00;;;;;;5467681;26;20333;-85
2024/04/14 09:16:29;;;;;;;9.43;3.57;;;14.90;1.00;;;;;;5467221;26;20996;-84
2024/04/14 09:18:55;;;;;;;9.77;3.13;;;15.10;1.00;;;;;;5472956;26;20771;-85
2024/04/14 09:21:21;;;;;;;7.90;3.07;;;15.20;1.00;;;;;;5466253;26;20236;-84
2024/04/14 09:23:48;;;;;;;10.33;3.20;;;15.40;1.00;;;;;;5459004;26;20267;-85
2024/04/14 09:26:14;;;;;;;7.93;3.10;;;15.40;1.00;;;;;;5464181;26;20272;-84
2024/04/14 09:28:39;;;;;;;7.83;3.27;;;15.30;1.00;;;;;;5457278;26;20591;-83
2024/04/14 09:31:06;;;;;;;9.87;3.50;;;15.20;1.00;;;;;;5463059;26;20236;-83
2024/04/14 09:33:32;;;;;;;10.17;3.07;;;15.20;1.00;;;;;;5465789;26;20785;-83
2024/04/14 09:35:58;;;;;;;11.87;3.67;;;15.30;1.00;;;;;;5461875;26;20238;-83
2024/04/14 09:38:25;;;;;;;12.67;4.20;;;15.40;1.00;;;;;;5464438;26;20267;-83
2024/04/14 09:40:52;;;;;;;9.87;3.37;;;15.30;1.00;;;;;;5467134;26;20228;-83
2024/04/14 09:43:19;;;;;;;10.23;3.77;;;15.00;1.00;;;;;;5473985;26;20226;-84
2024/04/14 09:45:46;;;;;;;10.60;3.30;;;14.90;1.00;;;;;;5476784;26;20276;-86
2024/04/14 09:48:14;;;;;;;15.83;3.63;;;15.00;1.00;;;;;;5482211;26;20618;-85
2024/04/14 09:50:42;;;;;;;9.40;3.60;;;14.90;1.00;;;;;;5484138;26;20234;-84
2024/04/14 09:53:09;;;;;;;6.47;3.07;;;15.10;1.00;;;;;;5478301;26;20251;-83
2024/04/14 09:55:35;;;;;;;7.00;3.33;;;15.20;1.00;;;;;;5453950;26;20333;-83
2024/04/14 09:58:01;;;;;;;7.73;3.30;;;15.50;1.00;;;;;;5452669;26;20230;-84
2024/04/14 10:00:27;;;;;;;11.07;3.53;;;15.70;1.00;;;;;;5451635;26;20272;-83
2024/04/14 10:03:03;;;;;;;11.77;4.27;;;15.80;1.00;;;;;;5485965;26;20485;-83
2024/04/14 10:05:30;;;;;;;10.50;4.27;;;15.90;1.00;;;;;;5459045;26;20303;-85
2024/04/14 10:07:55;;;;;;;11.40;4.30;;;16.00;1.00;;;;;;5454360;26;20334;-83
2024/04/14 10:10:24;;;;;;;13.57;4.90;;;16.10;1.00;;;;;;5454177;26;20225;-84
2024/04/14 10:12:51;;;;;;;14.00;4.73;;;16.10;1.00;;;;;;5459134;26;20282;-85
2024/04/14 10:15:19;;;;;;;8.17;3.97;;;16.30;1.00;;;;;;5466211;26;20221;-84
2024/04/14 10:17:46;;;;;;;9.33;4.33;;;16.20;1.00;;;;;;5454591;26;20250;-85
2024/04/14 10:20:17;;;;;;;6.60;3.97;;;15.90;1.00;;;;;;5454380;26;20323;-84
2024/04/14 10:22:45;;;;;;;9.00;4.40;;;15.70;1.00;;;;;;5473926;26;20318;-83
2024/04/14 10:25:22;;;;;;;9.63;4.00;;;15.70;1.00;;;;;;5465358;26;20260;-86
2024/04/14 10:27:49;;;;;;;13.53;4.00;;;15.90;1.00;;;;;;5479184;26;20289;-84
2024/04/14 10:30:22;;;;;;;6.83;3.37;;;16.10;1.00;;;;;;5485652;26;20263;-81
2024/04/14 10:32:59;;;;;;;8.17;3.80;;;16.50;1.00;;;;;;5486365;26;20720;-84
2024/04/14 10:35:25;;;;;;;10.07;4.17;;;16.80;1.00;;;;;;5462533;26;20638;-84
2024/04/14 10:37:54;;;;;;;9.57;4.10;;;16.80;1.00;;;;;;5480944;26;20232;-82
2024/04/14 10:40:20;;;;;;;9.67;3.97;;;16.80;1.00;;;;;;5505195;25;20358;-85
2024/04/14 10:42:46;;;;;;;9.67;4.10;;;16.70;1.00;;;;;;5504832;26;20234;-83
2024/04/14 10:45:12;;;;;;;7.80;3.90;;;16.40;1.00;;;;;;5499252;26;20232;-87
2024/04/14 10:47:40;;;;;;;8.10;4.13;;;16.40;1.00;;;;;;5504195;25;21211;-85
2024/04/14 10:50:06;;;;;;;8.43;4.07;;;16.60;1.00;;;;;;5499513;26;20341;-88
2024/04/14 10:52:32;;;;;;;7.27;3.77;;;16.80;1.00;;;;;;5506997;26;20227;-89
2024/04/14 10:54:57;;;;;;;7.73;4.20;;;16.80;1.00;;;;;;5494015;26;20229;-91
2024/04/14 10:57:24;;;;;;;7.70;4.10;;;17.00;1.00;;;;;;5505268;25;20265;-92
2024/04/14 10:59:50;;;;;;;8.17;3.50;;;16.50;1.00;;;;;;5484120;25;20233;-87
2024/04/14 11:02:16;;;;;;;8.60;4.23;;;16.30;1.00;;;;;;5483430;26;20327;-84
2024/04/14 11:04:42;;;;;;;7.50;3.80;;;16.20;1.00;;;;;;5504500;25;20330;-84
2024/04/14 11:07:09;;;;;;;7.07;3.50;;;16.20;1.00;;;;;;5477122;26;20650;-81
2024/04/14 11:09:35;;;;;;;9.03;4.00;;;16.30;1.00;;;;;;5508452;26;20226;-83
2024/04/14 11:12:03;;;;;;;8.60;3.60;;;16.40;1.00;;;;;;5452308;26;20264;-85
2024/04/14 11:14:29;;;;;;;9.30;4.33;;;16.40;1.00;;;;;;5499450;26;20283;-84
2024/04/14 11:16:55;;;;;;;11.87;4.13;;;16.60;1.00;;;;;;5450032;26;20294;-78
2024/04/14 11:19:21;;;;;;;7.27;3.50;;;16.80;1.00;;;;;;5450200;26;20601;-85
2024/04/14 11:21:48;;;;;;;10.23;3.80;;;16.80;1.00;;;;;;5468746;26;20272;-84
2024/04/14 11:24:14;;;;;;;8.07;4.00;;;16.90;1.00;;;;;;5448951;26;20313;-84
2024/04/14 11:26:40;;;;;;;7.37;3.83;;;16.90;1.00;;;;;;5451815;26;20616;-85
2024/04/14 11:29:07;;;;;;;9.53;2.77;;;17.00;1.00;;;;;;5466333;26;20832;-84
2024/04/14 11:31:36;;;;;;;8.30;3.70;;;17.00;1.00;;;;;;5486163;26;20681;-84
2024/04/14 11:34:02;;;;;;;8.57;3.60;;;16.60;1.00;;;;;;5484392;26;20230;-83
2024/04/14 11:36:34;;;;;;;7.17;3.83;;;16.60;1.00;;;;;;5482652;26;20237;-84
2024/04/14 11:39:04;;;;;;;7.83;3.50;;;16.50;1.00;;;;;;5482994;26;20216;-83
2024/04/14 11:41:30;;;;;;;7.23;3.30;;;16.60;1.00;;;;;;5484430;26;20220;-83
2024/04/14 11:43:57;;;;;;;6.63;3.33;;;16.90;1.00;;;;;;5487603;26;20213;-83
2024/04/14 11:46:22;;;;;;;8.73;3.47;;;17.10;1.00;;;;;;5461496;26;20236;-85
2024/04/14 11:48:48;;;;;;;6.77;3.40;;;17.00;1.00;;;;;;5483218;26;20276;-85
2024/04/14 11:51:14;;;;;;;7.57;3.40;;;16.90;1.00;;;;;;5478412;26;20302;-84
2024/04/14 11:53:40;;;;;;;7.43;3.77;;;17.00;1.00;;;;;;5447285;26;20320;-83
2024/04/14 11:56:06;;;;;;;7.27;3.07;;;16.90;1.00;;;;;;5444368;26;20217;-84
2024/04/14 11:58:31;;;;;;;9.50;3.53;;;16.90;1.00;;;;;;5461302;26;20570;-86
2024/04/14 12:00:58;;;;;;;7.10;3.60;;;17.20;1.00;;;;;;5484526;26;20288;-86
2024/04/14 12:03:24;;;;;;;7.20;3.67;;;17.20;1.00;;;;;;5485195;26;20340;-84
2024/04/14 12:05:50;;;;;;;7.27;3.23;;;17.30;1.00;;;;;;5478830;26;20230;-85
2024/04/14 12:08:16;;;;;;;7.57;3.27;;;17.40;1.00;;;;;;5475900;26;20244;-84
2024/04/14 12:10:42;;;;;;;6.03;3.40;;;17.30;1.00;;;;;;5474307;26;20234;-85
2024/04/14 12:13:09;;;;;;;6.87;3.07;;;17.30;1.00;;;;;;5449036;26;20285;-84
2024/04/14 12:15:35;;;;;;;6.43;3.00;;;17.10;1.00;;;;;;5447903;26;20228;-84
2024/04/14 12:18:01;;;;;;;9.07;3.17;;;17.10;1.00;;;;;;5449828;26;20722;-85
2024/04/14 12:20:27;;;;;;;6.50;3.03;;;17.20;1.00;;;;;;5457322;26;20421;-85
2024/04/14 12:22:53;;;;;;;7.17;2.93;;;17.10;1.00;;;;;;5449827;26;20638;-84
2024/04/14 12:25:20;;;;;;;6.70;3.20;;;17.00;1.00;;;;;;5455653;26;20227;-84
2024/04/14 12:27:45;;;;;;;5.27;2.40;;;17.10;1.00;;;;;;5485613;26;20216;-85
2024/04/14 12:30:11;;;;;;;8.80;3.13;;;17.10;1.00;;;;;;5485456;26;20243;-85
2024/04/14 12:32:37;;;;;;;7.07;2.70;;;17.00;1.00;;;;;;5486220;26;20230;-85
2024/04/14 12:35:04;;;;;;;6.80;3.00;;;17.00;1.00;;;;;;5486089;26;20644;-84
2024/04/14 12:37:30;;;;;;;6.87;2.40;;;17.20;1.00;;;;;;5483538;26;20216;-84